Santa Paula, CA (93060)

9:35 PM PST on March 06, 2015 (GMT -0800)
Santa Paula Airport | Change Station
CLOSE
Current Station
Personal Weather Station
Location: Santa Paula, CA
Elevation: 245 ft
Nearby Weather Stations

Elev 245 ft 34.35 °N, 119.06 °W | Updated 1 minute ago

Clear
Clear
52.0 °F
Feels Like 52.0 °F
N
1.0
Wind Variable Wind from East
Gusts 1.0 mph

Today
High -- | Low -- °F
--% Chance of Precip.
Yesterday
High -- | Low -- °F
Precip. -- in
6:19 AM 5:56 PM
Full, 98% visible
Pressure 30.06 in
Visibility 10.0 miles
Clouds Clear
Dew Point 38 °F
Humidity 59%
Rainfall in
Snow Depth Not available.
UV 0 out of 12
Pollen 8.80 out of 12
Air Quality Not available.
Flu Activity Not available.
METAR KCMA 070455Z 00000KT 10SM CLR 13/01 A3003 RMK AO2 SLP177 T01330011

More Conditions Fewer Conditions

Pressure 30.06 in
Visibility 10.0 miles
Clouds Clear
Dew Point 38 °F
Humidity 59%
Rainfall in
Snow Depth Not available.
UV 0 out of 12
Pollen 8.80 out of 12
Air Quality Not available.
Flu Activity Not available.
METAR KCMA 070455Z 00000KT 10SM CLR 13/01 A3003 RMK AO2 SLP177 T01330011

More Conditions Fewer Conditions

10-Day Weather Forecast

Almanac

Astronomy

Mar. 06, 2015 Rise Set
Actual Time
Civil Twilight
Nautical Twilight
Astronomical Twilight
Moon
Length of Visible Light
Length of Day
Tomorrow will be .
, % of the Moon is Illuminated

Today's Extremes

State Highs State Lows

Community

WunderPhotos

Upload Photos

1,803,551 photos uploaded!

WunderBlogs® & News

Nearby

Air Quality

  Air Quality AQ Index Pollutant
Not available.

Snow Depth

Station Depth Elevation

Earthquake Activity

City Distance Mag. Time & Date
Minimum magnitude displayed is 2.5.

Coastal Water Temperatures

Place Temperature

Nearby Weather Stations